Time;durP1;ratioP1;P1;durP2;ratioP2;P2;SDS_P1;SDS_P2;PMS_P1;PMS_P2;Temp;Humidity;BMP_temperature;BMP_pressure;BME280_temperature;BME280_humidity;BME280_pressure;Samples;Min_cycle;Max_cycle;Signal;HPM_P1;HPM_P2
2022/03/16 00:02:20;;;;;;;;;;;13.30;99.90;;;;;;4937789;29;20334;-89
2022/03/16 00:04:49;;;;;;;;;;;13.30;99.90;;;;;;4954981;28;19919;-89
2022/03/16 00:07:15;;;;;;;;;;;13.30;99.90;;;;;;4965586;28;20371;-89
2022/03/16 00:09:41;;;;;;;;;;;13.30;99.90;;;;;;4975807;28;19929;-89
2022/03/16 00:12:07;;;;;;;;;;;13.20;99.90;;;;;;4973361;28;20291;-89
2022/03/16 00:14:33;;;;;;;;;;;13.20;99.90;;;;;;4971890;28;20390;-89
2022/03/16 00:16:58;;;;;;;;;;;13.20;99.90;;;;;;4972941;28;19910;-89
2022/03/16 00:19:24;;;;;;;;;;;13.20;99.90;;;;;;4971856;28;19914;-89
2022/03/16 00:21:49;;;;;;;;;;;13.30;99.90;;;;;;4971722;28;19910;-89
2022/03/16 00:24:15;;;;;;;;;;;13.20;99.90;;;;;;4973285;28;20392;-89
2022/03/16 00:26:40;;;;;;;;;;;13.20;99.90;;;;;;4973227;28;19915;-89
2022/03/16 00:29:06;;;;;;;;;;;13.30;99.90;;;;;;4959250;28;19993;-89
2022/03/16 00:31:33;;;;;;;;;;;13.20;99.90;;;;;;4951181;28;19917;-89
2022/03/16 00:33:58;;;;;;;;;;;13.20;99.90;;;;;;4961554;28;19910;-89
2022/03/16 00:36:24;;;;;;;;;;;13.20;99.90;;;;;;4971430;28;20304;-89
2022/03/16 00:38:49;;;;;;;;;;;13.20;99.90;;;;;;4966381;28;19950;-89
2022/03/16 00:41:15;;;;;;;;;;;13.20;99.90;;;;;;4954355;28;19910;-89
2022/03/16 00:43:41;;;;;;;;;;;13.20;99.90;;;;;;4950003;28;19964;-89
2022/03/16 00:46:07;;;;;;;;;;;13.20;99.90;;;;;;4939089;29;19961;-89
2022/03/16 00:48:33;;;;;;;;;;;13.20;99.90;;;;;;4966842;28;19911;-89
2022/03/16 00:50:58;;;;;;;;;;;13.20;99.90;;;;;;4972531;28;19996;-89
2022/03/16 00:53:24;;;;;;;;;;;13.20;99.90;;;;;;4971421;28;19911;-89
2022/03/16 00:55:49;;;;;;;;;;;13.10;99.90;;;;;;4971708;28;19972;-89
2022/03/16 00:58:15;;;;;;;;;;;13.20;99.90;;;;;;4971177;28;20037;-89
2022/03/16 01:00:41;;;;;;;;;;;13.10;99.90;;;;;;4971078;28;19917;-89
2022/03/16 01:03:06;;;;;;;;;;;13.10;99.90;;;;;;4972876;28;20291;-90
2022/03/16 01:05:32;;;;;;;;;;;13.10;99.90;;;;;;4966287;28;19926;-89
2022/03/16 01:07:57;;;;;;;;;;;13.10;99.90;;;;;;4970729;28;19997;-88
2022/03/16 01:10:23;;;;;;;;;;;13.10;99.90;;;;;;4957327;28;19910;-89
2022/03/16 01:12:48;;;;;;;;;;;13.10;99.90;;;;;;4953599;28;19918;-89
2022/03/16 01:15:14;;;;;;;;;;;13.10;99.90;;;;;;4953423;28;19910;-89
2022/03/16 01:17:40;;;;;;;;;;;13.10;99.90;;;;;;4968114;28;20009;-89
2022/03/16 01:20:06;;;;;;;;;;;13.00;99.90;;;;;;4972211;28;20013;-89
2022/03/16 01:22:32;;;;;;;;;;;13.00;99.90;;;;;;4954883;28;20285;-89
2022/03/16 01:24:57;;;;;;;;;;;13.00;99.90;;;;;;4958456;28;19914;-88
2022/03/16 01:27:23;;;;;;;;;;;13.00;99.90;;;;;;4953764;28;20452;-89
2022/03/16 01:29:48;;;;;;;;;;;13.00;99.90;;;;;;4941464;28;19922;-89
2022/03/16 01:32:14;;;;;;;;;;;13.10;99.90;;;;;;4976773;28;19910;-88
2022/03/16 01:34:39;;;;;;;;;;;13.00;99.90;;;;;;4977703;28;19974;-89
2022/03/16 01:37:05;;;;;;;;;;;13.10;99.90;;;;;;4990316;28;19921;-89
2022/03/16 01:39:31;;;;;;;;;;;13.00;99.90;;;;;;4988158;28;19898;-89
2022/03/16 01:41:57;;;;;;;;;;;13.00;99.90;;;;;;4990180;28;19902;-89
2022/03/16 01:44:49;;;;;;;;;;;13.10;99.90;;;;;;4989479;28;19921;-89
2022/03/16 01:47:18;;;;;;;;;;;13.00;99.90;;;;;;4959415;28;19986;-90
2022/03/16 01:49:45;;;;;;;;;;;13.00;99.90;;;;;;4982184;28;19914;-89
2022/03/16 01:52:13;;;;;;;;;;;13.10;99.90;;;;;;4970034;28;19950;-89
2022/03/16 01:54:39;;;;;;;;;;;13.00;99.90;;;;;;4985304;28;19933;-89
2022/03/16 01:57:05;;;;;;;;;;;13.00;99.90;;;;;;4988553;28;19914;-89
2022/03/16 01:59:31;;;;;;;;;;;13.10;99.90;;;;;;4989231;28;19898;-89
2022/03/16 02:01:57;;;;;;;;;;;13.10;99.90;;;;;;4989059;28;19932;-90
2022/03/16 02:04:23;;;;;;;;;;;13.10;99.90;;;;;;4989118;28;19902;-90
2022/03/16 02:06:51;;;;;;;;;;;13.00;99.90;;;;;;4989048;28;19945;-89
2022/03/16 02:09:16;;;;;;;;;;;13.00;99.90;;;;;;4990106;28;19926;-89
2022/03/16 02:11:42;;;;;;;;;;;13.00;99.90;;;;;;4990335;28;19925;-89
2022/03/16 02:14:07;;;;;;;;;;;13.00;99.90;;;;;;4977708;28;19898;-89
2022/03/16 02:16:34;;;;;;;;;;;13.00;99.90;;;;;;4977278;28;19910;-89
2022/03/16 02:18:59;;;;;;;;;;;13.00;99.90;;;;;;4955837;28;19911;-89
2022/03/16 02:21:25;;;;;;;;;;;13.00;99.90;;;;;;4972563;28;19914;-89
2022/03/16 02:23:51;;;;;;;;;;;13.00;99.90;;;;;;4970643;28;19910;-89
2022/03/16 02:26:16;;;;;;;;;;;13.00;99.90;;;;;;4971538;28;19922;-88
2022/03/16 02:28:42;;;;;;;;;;;12.90;99.90;;;;;;4965198;28;19918;-89
2022/03/16 02:31:07;;;;;;;;;;;12.90;99.90;;;;;;4950346;28;19910;-89
2022/03/16 02:33:33;;;;;;;;;;;12.90;99.90;;;;;;4951172;28;20363;-89
2022/03/16 02:35:58;;;;;;;;;;;12.90;99.90;;;;;;4953061;28;19911;-89
2022/03/16 02:38:24;;;;;;;;;;;12.90;99.90;;;;;;4949060;28;19918;-89
2022/03/16 02:40:50;;;;;;;;;;;12.90;99.90;;;;;;4959125;28;19910;-89
2022/03/16 02:43:15;;;;;;;;;;;13.00;99.90;;;;;;4970141;28;20303;-89
2022/03/16 02:45:41;;;;;;;;;;;12.90;99.90;;;;;;4945364;28;20013;-89
2022/03/16 02:48:06;;;;;;;;;;;12.90;99.90;;;;;;4961521;28;19964;-90
2022/03/16 02:50:32;;;;;;;;;;;12.90;99.90;;;;;;4971456;28;19914;-89
2022/03/16 02:52:58;;;;;;;;;;;12.90;99.90;;;;;;4971135;28;20330;-89
2022/03/16 02:55:23;;;;;;;;;;;12.90;99.90;;;;;;4971527;28;20471;-89
2022/03/16 02:57:50;;;;;;;;;;;12.80;99.90;;;;;;4973190;28;20015;-89
2022/03/16 03:00:15;;;;;;;;;;;12.80;99.90;;;;;;4972864;28;19961;-89
2022/03/16 03:02:41;;;;;;;;;;;12.80;99.90;;;;;;4971073;28;19958;-89
2022/03/16 03:05:07;;;;;;;;;;;12.80;99.90;;;;;;4953992;28;19924;-89
2022/03/16 03:07:32;;;;;;;;;;;12.80;99.90;;;;;;4972298;28;19980;-89
2022/03/16 03:09:58;;;;;;;;;;;12.80;99.90;;;;;;4952843;28;19919;-89
2022/03/16 03:12:23;;;;;;;;;;;12.80;99.90;;;;;;4940775;28;20009;-89
2022/03/16 03:14:49;;;;;;;;;;;12.80;99.90;;;;;;4970403;28;19914;-89
2022/03/16 03:17:15;;;;;;;;;;;12.80;99.90;;;;;;4953935;28;19914;-89
2022/03/16 03:19:42;;;;;;;;;;;12.80;99.90;;;;;;4972372;28;20415;-89
2022/03/16 03:22:08;;;;;;;;;;;12.80;99.90;;;;;;4964229;28;19918;-89
2022/03/16 03:24:33;;;;;;;;;;;12.90;99.90;;;;;;4950453;28;19910;-89
2022/03/16 03:26:59;;;;;;;;;;;12.90;99.90;;;;;;4950436;28;19911;-89
2022/03/16 03:29:24;;;;;;;;;;;12.90;99.90;;;;;;4948369;28;19969;-89
2022/03/16 03:31:51;;;;;;;;;;;12.90;99.90;;;;;;4946655;28;19914;-89
2022/03/16 03:34:17;;;;;;;;;;;12.80;99.90;;;;;;4974171;28;19915;-89
2022/03/16 03:36:43;;;;;;;;;;;12.80;99.90;;;;;;4957348;28;19917;-89
2022/03/16 03:39:09;;;;;;;;;;;12.90;99.90;;;;;;4953773;28;20404;-89
2022/03/16 03:41:35;;;;;;;;;;;12.90;99.90;;;;;;4953530;28;20005;-89
2022/03/16 03:44:01;;;;;;;;;;;12.90;99.90;;;;;;4956269;28;19966;-89
2022/03/16 03:46:26;;;;;;;;;;;12.80;99.90;;;;;;4938564;28;20495;-89
2022/03/16 03:48:52;;;;;;;;;;;12.80;99.90;;;;;;4955790;28;19911;-89
2022/03/16 03:51:18;;;;;;;;;;;12.90;99.90;;;;;;4961121;28;19910;-89
2022/03/16 03:53:43;;;;;;;;;;;12.90;99.90;;;;;;4972465;28;19914;-89
2022/03/16 03:56:09;;;;;;;;;;;12.90;99.90;;;;;;4961228;28;19950;-89
2022/03/16 03:58:35;;;;;;;;;;;12.90;99.90;;;;;;4955121;28;20379;-89
2022/03/16 04:01:01;;;;;;;;;;;12.90;99.90;;;;;;4955071;28;20048;-89
2022/03/16 04:03:26;;;;;;;;;;;12.90;99.90;;;;;;4955525;28;20484;-89
2022/03/16 04:05:52;;;;;;;;;;;12.90;99.90;;;;;;4967386;28;19918;-89
2022/03/16 04:08:17;;;;;;;;;;;12.90;99.90;;;;;;4972272;28;19922;-89
2022/03/16 04:10:43;;;;;;;;;;;12.80;99.90;;;;;;4973763;28;19936;-89
2022/03/16 04:13:09;;;;;;;;;;;12.90;99.90;;;;;;4973385;28;20417;-89
2022/03/16 04:15:34;;;;;;;;;;;12.80;99.90;;;;;;4962233;28;19915;-89
2022/03/16 04:18:00;;;;;;;;;;;12.90;99.90;;;;;;4965829;28;20298;-89
2022/03/16 04:20:25;;;;;;;;;;;12.80;99.90;;;;;;4973526;28;19910;-91
2022/03/16 04:22:51;;;;;;;;;;;12.80;99.90;;;;;;4973551;28;20660;-89
2022/03/16 04:25:17;;;;;;;;;;;12.80;99.90;;;;;;4966827;28;19918;-89
2022/03/16 04:27:42;;;;;;;;;;;12.90;99.90;;;;;;4955186;28;19911;-89
2022/03/16 04:30:08;;;;;;;;;;;12.90;99.90;;;;;;4952692;28;19915;-89
2022/03/16 04:32:34;;;;;;;;;;;12.90;99.90;;;;;;4964277;28;19918;-89
2022/03/16 04:34:59;;;;;;;;;;;12.80;99.90;;;;;;4973357;28;19910;-89
2022/03/16 04:37:25;;;;;;;;;;;12.80;99.90;;;;;;4965748;28;19918;-89
2022/03/16 04:39:50;;;;;;;;;;;12.80;99.90;;;;;;4959186;28;20344;-89
2022/03/16 04:42:16;;;;;;;;;;;12.80;99.90;;;;;;4961044;28;19910;-89
2022/03/16 04:44:42;;;;;;;;;;;12.80;99.90;;;;;;4954268;28;19915;-89
2022/03/16 04:47:07;;;;;;;;;;;12.80;99.90;;;;;;4937288;28;19911;-89
2022/03/16 04:49:33;;;;;;;;;;;12.80;99.90;;;;;;4949988;28;19988;-89
2022/03/16 04:51:58;;;;;;;;;;;12.80;99.90;;;;;;4955846;28;20021;-89
2022/03/16 04:54:24;;;;;;;;;;;12.80;99.90;;;;;;4972712;28;19918;-89
2022/03/16 04:56:50;;;;;;;;;;;12.80;99.90;;;;;;4950081;28;19911;-89
2022/03/16 04:59:15;;;;;;;;;;;12.80;99.90;;;;;;4949552;28;20172;-89
2022/03/16 05:01:41;;;;;;;;;;;12.80;99.90;;;;;;4949648;28;19943;-89
2022/03/16 05:04:07;;;;;;;;;;;12.80;99.90;;;;;;4970590;28;20360;-89
2022/03/16 05:06:32;;;;;;;;;;;12.80;99.90;;;;;;4944434;29;20033;-88
2022/03/16 05:08:58;;;;;;;;;;;12.80;99.90;;;;;;4947017;28;19963;-91
2022/03/16 05:11:23;;;;;;;;;;;12.80;99.90;;;;;;4972602;28;19910;-90
2022/03/16 05:13:49;;;;;;;;;;;12.80;99.90;;;;;;4962838;28;19915;-89
2022/03/16 05:16:15;;;;;;;;;;;12.80;99.90;;;;;;4958031;28;19913;-89
2022/03/16 05:18:44;;;;;;;;;;;12.80;99.90;;;;;;4972509;28;19910;-89
2022/03/16 05:21:09;;;;;;;;;;;12.80;99.90;;;;;;4957144;28;19946;-89
2022/03/16 05:23:35;;;;;;;;;;;12.70;99.90;;;;;;4965098;28;20398;-89
2022/03/16 05:26:01;;;;;;;;;;;12.70;99.90;;;;;;4953960;28;19925;-89
2022/03/16 05:28:27;;;;;;;;;;;12.70;99.90;;;;;;4953554;28;19962;-89
2022/03/16 05:30:52;;;;;;;;;;;12.80;99.90;;;;;;4953528;28;19911;-89
2022/03/16 05:33:18;;;;;;;;;;;12.80;99.90;;;;;;4953549;28;19911;-89
2022/03/16 05:35:43;;;;;;;;;;;12.80;99.90;;;;;;4967368;28;19961;-89
2022/03/16 05:38:12;;;;;;;;;;;12.80;99.90;;;;;;4973958;28;19910;-89
2022/03/16 05:40:39;;;;;;;;;;;12.80;99.90;;;;;;4955035;28;20146;-89
2022/03/16 05:43:04;;;;;;;;;;;12.80;99.90;;;;;;4953557;28;20303;-89
2022/03/16 05:45:30;;;;;;;;;;;12.80;99.90;;;;;;4949156;28;19956;-89
2022/03/16 05:47:56;;;;;;;;;;;12.80;99.90;;;;;;4936246;28;19919;-88
2022/03/16 05:50:21;;;;;;;;;;;12.80;99.90;;;;;;4954138;28;20240;-90
2022/03/16 05:52:47;;;;;;;;;;;12.80;99.90;;;;;;4947535;28;19910;-89
2022/03/16 05:55:13;;;;;;;;;;;12.80;99.90;;;;;;4963910;28;19914;-89
2022/03/16 05:57:40;;;;;;;;;;;12.80;99.90;;;;;;4971792;28;19910;-89
2022/03/16 06:00:06;;;;;;;;;;;12.80;99.90;;;;;;4971586;28;20448;-91
2022/03/16 06:02:32;;;;;;;;;;;12.80;99.90;;;;;;4950142;29;20299;-89
2022/03/16 06:04:57;;;;;;;;;;;12.80;99.90;;;;;;4941999;29;19919;-89
2022/03/16 06:07:23;;;;;;;;;;;12.80;99.90;;;;;;4949106;28;20368;-89
2022/03/16 06:09:48;;;;;;;;;;;12.80;99.90;;;;;;4952696;28;20005;-89
2022/03/16 06:12:14;;;;;;;;;;;12.80;99.90;;;;;;4951877;28;19911;-89
2022/03/16 06:14:39;;;;;;;;;;;12.80;99.90;;;;;;4968684;28;20335;-89
2022/03/16 06:17:05;;;;;;;;;;;12.80;99.90;;;;;;4971977;28;19949;-89
2022/03/16 06:19:31;;;;;;;;;;;12.80;99.90;;;;;;4963422;28;19910;-92
2022/03/16 06:21:57;;;;;;;;;;;12.80;99.90;;;;;;4964150;28;19957;-93
2022/03/16 06:24:22;;;;;;;;;;;12.80;99.90;;;;;;4956200;28;20620;-93
2022/03/16 06:26:48;;;;;;;;;;;12.80;99.90;;;;;;4952877;28;19938;-93
2022/03/16 06:29:13;;;;;;;;;;;12.80;99.90;;;;;;4953893;28;20005;-93
2022/03/16 06:31:39;;;;;;;;;;;12.80;99.90;;;;;;4954164;28;19914;-93
2022/03/16 06:34:07;;;;;;;;;;;12.80;99.90;;;;;;4956469;28;19914;-93
2022/03/16 06:36:33;;;;;;;;;;;12.80;99.90;;;;;;4949986;28;19973;-94
2022/03/16 06:38:58;;;;;;;;;;;12.80;99.90;;;;;;4953819;28;19910;-94
2022/03/16 06:41:24;;;;;;;;;;;12.80;99.90;;;;;;4952939;28;19911;-93
2022/03/16 06:43:49;;;;;;;;;;;12.80;99.90;;;;;;4954938;28;19911;-92
2022/03/16 06:46:15;;;;;;;;;;;12.80;99.90;;;;;;4960321;28;19926;-93
2022/03/16 06:48:41;;;;;;;;;;;12.90;99.90;;;;;;4975450;28;19950;-92
2022/03/16 06:51:07;;;;;;;;;;;12.90;99.90;;;;;;4975314;28;20245;-93
2022/03/16 06:53:32;;;;;;;;;;;12.90;99.90;;;;;;4976475;28;19945;-92
2022/03/16 06:56:03;;;;;;;;;;;12.90;99.90;;;;;;4974764;28;20001;-93
2022/03/16 06:58:29;;;;;;;;;;;12.80;99.90;;;;;;4963420;28;19978;-93
2022/03/16 07:00:54;;;;;;;;;;;12.90;99.90;;;;;;4962606;28;19907;-93
2022/03/16 07:03:20;;;;;;;;;;;12.90;99.90;;;;;;4975354;28;19913;-94
2022/03/16 07:05:46;;;;;;;;;;;12.90;99.90;;;;;;4971039;28;19920;-95
2022/03/16 07:08:12;;;;;;;;;;;13.00;99.90;;;;;;4981993;28;19961;-93
2022/03/16 07:10:40;;;;;;;;;;;13.00;99.90;;;;;;4981147;28;20194;-94
2022/03/16 07:13:06;;;;;;;;;;;13.00;99.90;;;;;;4981773;28;20237;-93
2022/03/16 07:15:32;;;;;;;;;;;13.00;99.90;;;;;;4948147;28;19913;-93
2022/03/16 07:17:58;;;;;;;;;;;13.00;99.90;;;;;;4949274;29;19906;-93
2022/03/16 07:20:24;;;;;;;;;;;13.00;99.90;;;;;;4962272;28;20135;-93
2022/03/16 07:23:02;;;;;;;;;;;13.10;99.90;;;;;;4954798;29;19906;-93
2022/03/16 07:25:28;;;;;;;;;;;13.10;99.90;;;;;;4960655;28;19990;-93
2022/03/16 07:27:54;;;;;;;;;;;13.10;99.90;;;;;;4950367;29;19929;-93
2022/03/16 07:30:20;;;;;;;;;;;13.20;99.90;;;;;;4966685;29;20111;-93
2022/03/16 07:32:46;;;;;;;;;;;13.20;99.90;;;;;;4961919;28;20254;-95
2022/03/16 07:35:11;;;;;;;;;;;13.30;99.90;;;;;;4961008;29;20079;-94
2022/03/16 07:37:42;;;;;;;;;;;13.40;99.90;;;;;;4966133;29;19913;-93
2022/03/16 07:40:08;;;;;;;;;;;13.40;99.90;;;;;;4949851;28;19907;-93
2022/03/16 07:42:34;;;;;;;;;;;13.40;99.90;;;;;;4938233;29;19906;-93
2022/03/16 07:44:59;;;;;;;;;;;13.50;99.90;;;;;;4957210;29;19921;-93
2022/03/16 07:47:25;;;;;;;;;;;13.50;99.90;;;;;;4965563;29;19915;-93
2022/03/16 07:49:52;;;;;;;;;;;13.50;99.90;;;;;;4950735;29;19906;-93
2022/03/16 07:52:20;;;;;;;;;;;13.50;99.90;;;;;;4947364;29;19938;-93
2022/03/16 07:54:48;;;;;;;;;;;13.60;99.90;;;;;;4947638;29;19907;-94
2022/03/16 07:57:13;;;;;;;;;;;13.70;99.90;;;;;;4947269;29;19907;-93
2022/03/16 07:59:39;;;;;;;;;;;13.70;99.90;;;;;;4946334;29;19907;-93
2022/03/16 08:02:10;;;;;;;;;;;13.70;99.90;;;;;;4947557;29;19907;-94
2022/03/16 08:04:36;;;;;;;;;;;13.80;99.90;;;;;;4955011;29;19990;-93
2022/03/16 08:07:01;;;;;;;;;;;13.80;99.90;;;;;;4965508;29;19906;-94
2022/03/16 08:09:27;;;;;;;;;;;13.90;99.90;;;;;;4964622;29;20206;-94
2022/03/16 08:11:54;;;;;;;;;;;13.90;99.90;;;;;;4958131;29;19977;-93
2022/03/16 08:14:19;;;;;;;;;;;13.90;99.90;;;;;;4949247;29;19911;-94
2022/03/16 08:16:47;;;;;;;;;;;13.90;99.90;;;;;;4945886;29;19907;-95
2022/03/16 08:19:15;;;;;;;;;;;13.90;99.90;;;;;;4950600;29;19938;-93
2022/03/16 08:21:49;;;;;;;;;;;13.90;99.90;;;;;;4946889;29;20292;-94
2022/03/16 08:24:21;;;;;;;;;;;13.90;99.90;;;;;;4947327;29;19917;-93
2022/03/16 08:26:46;;;;;;;;;;;14.00;99.90;;;;;;4952215;29;19918;-94
2022/03/16 08:29:12;;;;;;;;;;;14.00;99.90;;;;;;4951419;29;19914;-92
2022/03/16 08:31:37;;;;;;;;;;;14.10;99.90;;;;;;4949839;29;19917;-94
2022/03/16 08:34:21;;;;;;;;;;;14.20;99.90;;;;;;4941369;29;19918;-95
2022/03/16 08:36:46;;;;;;;;;;;14.10;99.90;;;;;;4935370;29;19911;-95
2022/03/16 08:39:17;;;;;;;;;;;14.10;99.90;;;;;;4935551;29;19915;-95
2022/03/16 08:41:43;;;;;;;;;;;14.10;99.90;;;;;;4937941;29;19910;-93
2022/03/16 08:44:09;;;;;;;;;;;14.20;99.90;;;;;;4940988;29;19914;-93
2022/03/16 08:46:35;;;;;;;;;;;14.20;99.90;;;;;;4971975;28;20010;-95
2022/03/16 08:49:05;;;;;;;;;;;14.30;99.90;;;;;;4971164;28;19965;-94
2022/03/16 08:51:31;;;;;;;;;;;14.20;99.90;;;;;;4958892;28;20130;-93
2022/03/16 08:54:13;;;;;;;;;;;14.30;99.90;;;;;;4942149;29;20055;-93
2022/03/16 08:56:41;;;;;;;;;;;14.30;99.90;;;;;;4962899;28;19911;-94
2022/03/16 08:59:37;;;;;;;;;;;;;;;;;;;;;
2022/03/16 09:02:24;;;;;;;;;;;14.30;99.90;;;;;;4930823;28;19952;-93
2022/03/16 09:04:52;;;;;;;;;;;14.30;99.90;;;;;;4947849;28;19915;-94
2022/03/16 09:07:17;;;;;;;;;;;14.40;99.90;;;;;;4938351;29;19961;-94
2022/03/16 09:09:45;;;;;;;;;;;14.30;99.90;;;;;;4953261;29;19927;-94
2022/03/16 09:12:11;;;;;;;;;;;14.40;99.90;;;;;;4946310;29;19997;-94
2022/03/16 09:14:43;;;;;;;;;;;14.40;99.90;;;;;;4952814;29;19915;-95
2022/03/16 09:17:17;;;;;;;;;;;14.50;99.90;;;;;;4939223;28;19962;-94
2022/03/16 09:22:56;;;;;;;;;;;;;;;;;;;;;
2022/03/16 09:28:52;;;;;;;;;;;;;;;;;;;;;
2022/03/16 09:31:36;;;;;;;;;;;14.80;99.90;;;;;;4944038;29;19983;-94
2022/03/16 09:34:30;;;;;;;;;;;14.80;99.90;;;;;;4936904;29;19911;-94
2022/03/16 09:37:00;;;;;;;;;;;14.80;99.90;;;;;;4937218;29;19910;-96
2022/03/16 09:39:27;;;;;;;;;;;14.80;99.90;;;;;;4936323;29;20423;-95
2022/03/16 09:42:19;;;;;;;;;;;14.90;99.90;;;;;;4936912;29;19917;-94
2022/03/16 09:44:45;;;;;;;;;;;14.90;99.90;;;;;;4936849;29;20006;-94
2022/03/16 09:47:13;;;;;;;;;;;14.90;99.90;;;;;;4949768;29;19953;-95
2022/03/16 09:49:41;;;;;;;;;;;14.90;99.90;;;;;;4957552;28;19918;-94
2022/03/16 09:52:12;;;;;;;;;;;14.90;99.90;;;;;;4917887;29;19915;-94
2022/03/16 09:54:38;;;;;;;;;;;14.80;99.90;;;;;;4948214;28;19946;-94
2022/03/16 09:59:52;;;;;;;;;;;15.00;99.90;;;;;;4928413;29;19958;-95
2022/03/16 10:02:21;;;;;;;;;;;15.10;99.90;;;;;;4968389;28;19932;-93
2022/03/16 10:04:49;;;;;;;;;;;15.00;99.90;;;;;;4942642;29;19915;-94
2022/03/16 10:07:20;;;;;;;;;;;14.80;99.90;;;;;;4935817;29;20340;-95
2022/03/16 10:13:21;;;;;;;;;;;14.80;99.90;;;;;;4944697;28;19966;-94
2022/03/16 10:16:13;;;;;;;;;;;14.80;99.90;;;;;;4951582;29;20442;-94
2022/03/16 10:18:41;;;;;;;;;;;14.80;99.90;;;;;;4929682;29;19911;-94
2022/03/16 10:21:07;;;;;;;;;;;14.80;99.90;;;;;;4944415;29;19911;-93
2022/03/16 10:24:03;;;;;;;;;;;14.80;99.90;;;;;;4948142;29;19910;-94
2022/03/16 10:26:52;;;;;;;;;;;14.90;99.90;;;;;;4951815;29;20380;-94
2022/03/16 10:40:32;;;;;;;;;;;15.20;99.90;;;;;;4919383;29;19918;-93
2022/03/16 10:49:38;;;;;;;;;;;15.30;99.90;;;;;;4950978;29;19917;-95
2022/03/16 10:52:17;;;;;;;;;;;15.40;99.90;;;;;;4959067;29;19917;-93
2022/03/16 10:54:52;;;;;;;;;;;15.60;99.90;;;;;;4976684;28;20019;-94
2022/03/16 10:57:39;;;;;;;;;;;15.60;99.90;;;;;;4973490;28;19914;-95
2022/03/16 11:00:23;;;;;;;;;;;15.50;99.90;;;;;;4939380;29;19911;-94
2022/03/16 11:03:16;;;;;;;;;;;15.50;99.90;;;;;;4955753;29;19911;-94
2022/03/16 11:05:54;;;;;;;;;;;15.50;99.90;;;;;;4974448;28;20390;-94
2022/03/16 11:08:44;;;;;;;;;;;15.50;99.90;;;;;;4954131;28;19929;-95
2022/03/16 11:13:56;;;;;;;;;;;15.60;99.90;;;;;;4967979;28;19958;-92
2022/03/16 11:16:24;;;;;;;;;;;15.60;99.90;;;;;;4981205;28;19974;-92
2022/03/16 11:18:51;;;;;;;;;;;15.60;99.90;;;;;;4987296;28;19906;-91
2022/03/16 11:21:21;;;;;;;;;;;15.50;99.90;;;;;;4995258;28;19906;-91
2022/03/16 11:26:49;;;;;;;;;;;15.40;99.90;;;;;;4966558;28;20015;-90
2022/03/16 11:29:26;;;;;;;;;;;15.40;99.90;;;;;;4980130;28;20139;-91
2022/03/16 11:32:06;;;;;;;;;;;15.50;99.90;;;;;;4983840;28;19914;-91
2022/03/16 11:34:33;;;;;;;;;;;15.60;99.90;;;;;;4975589;28;20162;-91
2022/03/16 11:37:00;;;;;;;;;;;15.60;99.90;;;;;;4981436;28;20014;-90
2022/03/16 11:39:26;;;;;;;;;;;15.50;99.90;;;;;;4975061;28;19946;-91
2022/03/16 11:41:52;;;;;;;;;;;15.60;99.90;;;;;;4983857;28;19961;-91
2022/03/16 11:44:25;;;;;;;;;;;15.50;99.90;;;;;;4983663;28;19913;-95
2022/03/16 11:46:51;;;;;;;;;;;15.50;99.90;;;;;;4974288;28;19915;-90
2022/03/16 11:49:30;;;;;;;;;;;15.50;99.90;;;;;;4962297;28;19910;-91
2022/03/16 11:51:56;;;;;;;;;;;15.50;99.90;;;;;;4965162;28;19950;-91
2022/03/16 11:54:38;;;;;;;;;;;15.50;99.90;;;;;;4976605;28;19914;-90
2022/03/16 11:57:03;;;;;;;;;;;15.60;99.90;;;;;;4986656;28;19981;-91
2022/03/16 11:59:31;;;;;;;;;;;15.50;99.90;;;;;;4963899;28;20111;-90
2022/03/16 12:02:06;;;;;;;;;;;15.60;99.90;;;;;;4965055;28;19937;-91
2022/03/16 12:04:33;;;;;;;;;;;15.60;99.90;;;;;;4935290;28;19911;-90
2022/03/16 12:07:09;;;;;;;;;;;15.50;99.90;;;;;;4957234;28;19918;-91
2022/03/16 12:09:45;;;;;;;;;;;15.50;99.90;;;;;;4962925;28;19927;-92
2022/03/16 12:15:11;;;;;;;;;;;15.60;99.90;;;;;;4970579;28;19917;-90
2022/03/16 12:17:40;;;;;;;;;;;15.60;99.90;;;;;;4953582;28;19910;-91
2022/03/16 12:20:10;;;;;;;;;;;15.60;99.90;;;;;;4961419;28;20403;-91
2022/03/16 12:22:44;;;;;;;;;;;15.60;99.90;;;;;;4969658;28;19910;-90
2022/03/16 12:25:22;;;;;;;;;;;15.60;99.90;;;;;;4974940;28;19919;-90
2022/03/16 12:30:39;;;;;;;;;;;15.70;99.90;;;;;;4963060;28;19933;-91
2022/03/16 12:33:05;;;;;;;;;;;15.70;99.90;;;;;;4969221;28;20004;-92
2022/03/16 12:35:34;;;;;;;;;;;15.60;99.90;;;;;;4970068;28;19910;-92
2022/03/16 12:38:01;;;;;;;;;;;15.50;99.90;;;;;;4971346;28;19910;-91
2022/03/16 12:40:29;;;;;;;;;;;15.60;99.90;;;;;;4969647;28;19917;-92
2022/03/16 12:42:56;;;;;;;;;;;15.50;99.90;;;;;;4967240;28;19910;-91
2022/03/16 12:45:25;;;;;;;;;;;15.50;99.90;;;;;;4974189;28;19937;-92
2022/03/16 12:48:04;;;;;;;;;;;15.60;99.90;;;;;;4974665;28;19910;-92
2022/03/16 12:50:30;;;;;;;;;;;15.60;99.90;;;;;;4936304;29;20067;-92
2022/03/16 12:52:57;;;;;;;;;;;15.40;99.90;;;;;;4962366;28;20489;-92
2022/03/16 12:55:23;;;;;;;;;;;15.30;99.90;;;;;;4958612;28;19911;-91
2022/03/16 12:57:59;;;;;;;;;;;15.30;99.90;;;;;;4958848;28;19918;-92
2022/03/16 13:00:32;;;;;;;;;;;15.30;99.90;;;;;;4938289;28;20361;-93
2022/03/16 13:03:15;;;;;;;;;;;15.20;99.90;;;;;;4967414;28;19958;-96
2022/03/16 13:05:41;;;;;;;;;;;15.20;99.90;;;;;;4961960;28;19919;-92
2022/03/16 13:08:09;;;;;;;;;;;15.20;99.90;;;;;;4941746;29;20471;-95
2022/03/16 13:11:14;;;;;;;;;;;15.30;99.90;;;;;;4969220;28;19913;-94
2022/03/16 13:13:22;;;;;;;;;;;15.30;99.90;;;;;;4977055;28;19998;-92
2022/03/16 13:15:50;;;;;;;;;;;15.40;99.90;;;;;;4975321;28;19910;-93
2022/03/16 13:18:29;;;;;;;;;;;15.50;99.90;;;;;;4956573;28;19911;-93
2022/03/16 13:20:54;;;;;;;;;;;15.50;99.90;;;;;;4955716;29;19949;-93
2022/03/16 13:23:28;;;;;;;;;;;15.50;99.90;;;;;;4956429;28;19911;-92
2022/03/16 13:26:10;;;;;;;;;;;15.60;99.90;;;;;;4962684;28;19918;-92
2022/03/16 13:28:39;;;;;;;;;;;15.50;99.90;;;;;;4970819;28;20194;-93
2022/03/16 13:31:05;;;;;;;;;;;15.40;99.90;;;;;;4974269;28;20012;-93
2022/03/16 13:33:30;;;;;;;;;;;15.60;99.90;;;;;;4974319;28;20481;-93
2022/03/16 13:36:12;;;;;;;;;;;15.70;99.90;;;;;;4965364;28;19953;-95
2022/03/16 13:38:38;;;;;;;;;;;15.70;99.90;;;;;;4958487;28;19910;-93
2022/03/16 13:41:14;;;;;;;;;;;15.90;99.90;;;;;;4970671;28;19965;-96
2022/03/16 13:43:39;;;;;;;;;;;15.90;99.90;;;;;;4972440;28;19910;-93
2022/03/16 13:46:13;;;;;;;;;;;15.90;99.90;;;;;;4967505;28;19925;-93
2022/03/16 13:48:42;;;;;;;;;;;15.80;99.90;;;;;;4968629;28;20403;-93
2022/03/16 13:51:09;;;;;;;;;;;15.70;99.90;;;;;;4961141;28;19918;-93
2022/03/16 13:53:40;;;;;;;;;;;15.70;99.90;;;;;;4966191;28;19910;-93
2022/03/16 13:56:11;;;;;;;;;;;15.80;99.90;;;;;;4961646;28;19921;-92
2022/03/16 13:58:38;;;;;;;;;;;15.90;99.90;;;;;;4945276;29;20391;-93
2022/03/16 14:01:04;;;;;;;;;;;15.90;99.90;;;;;;4966813;28;19961;-95
2022/03/16 14:03:30;;;;;;;;;;;15.80;99.90;;;;;;4945762;29;19910;-92
2022/03/16 14:05:56;;;;;;;;;;;15.80;99.90;;;;;;4954472;28;19934;-92
2022/03/16 14:08:22;;;;;;;;;;;15.70;99.90;;;;;;4962656;28;19980;-93
2022/03/16 14:10:48;;;;;;;;;;;15.70;99.90;;;;;;4943625;28;19974;-92
2022/03/16 14:13:15;;;;;;;;;;;15.80;99.90;;;;;;4970111;28;19914;-94
2022/03/16 14:15:41;;;;;;;;;;;15.80;99.90;;;;;;4935975;29;19911;-93
2022/03/16 14:18:14;;;;;;;;;;;15.80;99.90;;;;;;4941411;29;20444;-93
2022/03/16 14:20:41;;;;;;;;;;;15.90;99.90;;;;;;4941720;29;19961;-93
2022/03/16 14:23:08;;;;;;;;;;;16.00;99.90;;;;;;4955912;28;19915;-93
2022/03/16 14:25:39;;;;;;;;;;;16.00;99.90;;;;;;4957354;28;19919;-94
2022/03/16 14:28:06;;;;;;;;;;;15.80;99.90;;;;;;4937899;28;20376;-93
2022/03/16 14:30:35;;;;;;;;;;;15.80;99.90;;;;;;4952855;29;19918;-93
2022/03/16 14:33:02;;;;;;;;;;;15.90;99.90;;;;;;4947241;28;19911;-93
2022/03/16 14:35:29;;;;;;;;;;;16.00;99.90;;;;;;4944993;29;19910;-92
2022/03/16 14:37:55;;;;;;;;;;;16.00;99.90;;;;;;4970199;28;19911;-92
2022/03/16 14:40:21;;;;;;;;;;;16.10;99.90;;;;;;4949702;29;19917;-93
2022/03/16 14:42:50;;;;;;;;;;;16.10;99.90;;;;;;4939472;29;19915;-94
2022/03/16 14:45:16;;;;;;;;;;;16.10;99.90;;;;;;4969945;28;20037;-95
2022/03/16 14:47:41;;;;;;;;;;;16.00;99.90;;;;;;4947421;29;19911;-93
2022/03/16 14:50:07;;;;;;;;;;;16.10;99.90;;;;;;4943932;28;20393;-93
2022/03/16 14:52:33;;;;;;;;;;;16.00;99.90;;;;;;4963337;28;19911;-93
2022/03/16 14:54:59;;;;;;;;;;;15.90;99.90;;;;;;4934982;29;19915;-92
2022/03/16 14:57:25;;;;;;;;;;;15.80;99.90;;;;;;4944208;28;19914;-93
2022/03/16 14:59:52;;;;;;;;;;;15.60;99.90;;;;;;4956926;28;19907;-93
2022/03/16 15:02:18;;;;;;;;;;;15.60;99.90;;;;;;4956007;28;19926;-93
2022/03/16 15:04:45;;;;;;;;;;;15.60;99.90;;;;;;4948390;28;19911;-93
2022/03/16 15:07:11;;;;;;;;;;;15.50;99.90;;;;;;4940060;29;19911;-95
2022/03/16 15:09:37;;;;;;;;;;;15.50;99.90;;;;;;4943960;28;19927;-92